sensor_id;sensor_type;location;lat;lon;timestamp;temperature;humidity
49236;DHT22;35067;48.134;8.378;2024-01-15T00:00:43;-2.70;99.90
49236;DHT22;35067;48.134;8.378;2024-01-15T00:01:44;-2.70;99.90
49236;DHT22;35067;48.134;8.378;2024-01-15T00:02:46;-2.70;99.90
49236;DHT22;35067;48.134;8.378;2024-01-15T00:03:47;-2.80;99.90
49236;DHT22;35067;48.134;8.378;2024-01-15T00:04:48;-2.80;99.90
49236;DHT22;35067;48.134;8.378;2024-01-15T00:05:48;-2.80;99.90
49236;DHT22;35067;48.134;8.378;2024-01-15T00:06:50;-2.80;99.90
49236;DHT22;35067;48.134;8.378;2024-01-15T00:07:50;-2.80;99.90
49236;DHT22;35067;48.134;8.378;2024-01-15T00:08:51;-2.90;99.90
49236;DHT22;35067;48.134;8.378;2024-01-15T00:09:52;-2.90;99.90
49236;DHT22;35067;48.134;8.378;2024-01-15T00:10:52;-3.00;99.90
49236;DHT22;35067;48.134;8.378;2024-01-15T00:11:53;-3.00;99.90
49236;DHT22;35067;48.134;8.378;2024-01-15T00:12:54;-3.00;99.90
49236;DHT22;35067;48.134;8.378;2024-01-15T00:13:54;-3.00;99.90
49236;DHT22;35067;48.134;8.378;2024-01-15T00:14:55;-3.10;99.90
49236;DHT22;35067;48.134;8.378;2024-01-15T00:15:56;-3.10;99.90
49236;DHT22;35067;48.134;8.378;2024-01-15T00:16:56;-3.00;99.90
49236;DHT22;35067;48.134;8.378;2024-01-15T00:17:57;-3.00;99.90
49236;DHT22;35067;48.134;8.378;2024-01-15T00:18:58;-3.00;99.90
49236;DHT22;35067;48.134;8.378;2024-01-15T00:19:58;-3.00;99.90
49236;DHT22;35067;48.134;8.378;2024-01-15T00:20:59;-2.90;99.90
49236;DHT22;35067;48.134;8.378;2024-01-15T00:22:00;-2.90;99.90
49236;DHT22;35067;48.134;8.378;2024-01-15T00:23:00;-3.00;99.90
49236;DHT22;35067;48.134;8.378;2024-01-15T00:24:01;-3.00;99.90
49236;DHT22;35067;48.134;8.378;2024-01-15T00:25:02;-3.00;99.90
49236;DHT22;35067;48.134;8.378;2024-01-15T00:26:03;-3.00;99.90
49236;DHT22;35067;48.134;8.378;2024-01-15T00:27:04;-3.00;99.90
49236;DHT22;35067;48.134;8.378;2024-01-15T00:28:05;-3.00;99.90
49236;DHT22;35067;48.134;8.378;2024-01-15T00:29:09;-3.00;99.90
49236;DHT22;35067;48.134;8.378;2024-01-15T00:30:11;-3.00;99.90
49236;DHT22;35067;48.134;8.378;2024-01-15T00:31:12;-2.90;99.90
49236;DHT22;35067;48.134;8.378;2024-01-15T00:32:12;-3.00;99.90
49236;DHT22;35067;48.134;8.378;2024-01-15T00:33:13;-2.90;99.90
49236;DHT22;35067;48.134;8.378;2024-01-15T00:34:15;-2.80;99.90
49236;DHT22;35067;48.134;8.378;2024-01-15T00:35:15;-2.90;99.90
49236;DHT22;35067;48.134;8.378;2024-01-15T00:36:16;-2.80;99.90
49236;DHT22;35067;48.134;8.378;2024-01-15T00:37:17;-2.80;99.90
49236;DHT22;35067;48.134;8.378;2024-01-15T00:38:17;-2.80;99.90
49236;DHT22;35067;48.134;8.378;2024-01-15T00:39:18;-2.90;99.90
49236;DHT22;35067;48.134;8.378;2024-01-15T00:40:19;-2.90;99.90
49236;DHT22;35067;48.134;8.378;2024-01-15T00:41:20;-2.80;99.90
49236;DHT22;35067;48.134;8.378;2024-01-15T00:42:20;-2.70;99.90
49236;DHT22;35067;48.134;8.378;2024-01-15T00:43:21;-2.70;99.90
49236;DHT22;35067;48.134;8.378;2024-01-15T00:44:22;-2.70;99.90
49236;DHT22;35067;48.134;8.378;2024-01-15T00:45:23;-2.60;99.90
49236;DHT22;35067;48.134;8.378;2024-01-15T00:46:24;-2.60;99.90
49236;DHT22;35067;48.134;8.378;2024-01-15T00:47:24;-2.50;99.80
49236;DHT22;35067;48.134;8.378;2024-01-15T00:48:25;-2.50;99.70
49236;DHT22;35067;48.134;8.378;2024-01-15T00:49:26;-2.50;99.60
49236;DHT22;35067;48.134;8.378;2024-01-15T00:50:27;-2.50;99.60
49236;DHT22;35067;48.134;8.378;2024-01-15T00:51:28;-2.50;99.60
49236;DHT22;35067;48.134;8.378;2024-01-15T00:52:28;-2.50;99.80
49236;DHT22;35067;48.134;8.378;2024-01-15T00:53:29;-2.50;99.90
49236;DHT22;35067;48.134;8.378;2024-01-15T00:54:30;-2.50;99.90
49236;DHT22;35067;48.134;8.378;2024-01-15T00:55:30;-2.50;99.90
49236;DHT22;35067;48.134;8.378;2024-01-15T00:56:31;-2.40;99.70
49236;DHT22;35067;48.134;8.378;2024-01-15T00:57:32;-2.40;99.60
49236;DHT22;35067;48.134;8.378;2024-01-15T00:58:33;-2.30;99.40
49236;DHT22;35067;48.134;8.378;2024-01-15T00:59:34;-2.30;99.30
49236;DHT22;35067;48.134;8.378;2024-01-15T01:00:34;-2.20;99.30
49236;DHT22;35067;48.134;8.378;2024-01-15T01:01:35;-2.20;99.10
49236;DHT22;35067;48.134;8.378;2024-01-15T01:02:36;-2.20;99.00
49236;DHT22;35067;48.134;8.378;2024-01-15T01:03:37;-2.20;98.90
49236;DHT22;35067;48.134;8.378;2024-01-15T01:04:38;-2.10;98.90
49236;DHT22;35067;48.134;8.378;2024-01-15T01:05:38;-2.10;98.50
49236;DHT22;35067;48.134;8.378;2024-01-15T01:06:39;-2.00;98.40
49236;DHT22;35067;48.134;8.378;2024-01-15T01:07:40;-1.90;98.00
49236;DHT22;35067;48.134;8.378;2024-01-15T01:08:40;-1.90;97.90
49236;DHT22;35067;48.134;8.378;2024-01-15T01:09:41;-1.90;98.00
49236;DHT22;35067;48.134;8.378;2024-01-15T01:10:42;-1.80;97.70
49236;DHT22;35067;48.134;8.378;2024-01-15T01:11:43;-1.70;98.10
49236;DHT22;35067;48.134;8.378;2024-01-15T01:12:43;-1.70;97.50
49236;DHT22;35067;48.134;8.378;2024-01-15T01:13:44;-1.70;97.40
49236;DHT22;35067;48.134;8.378;2024-01-15T01:14:45;-1.60;97.20
49236;DHT22;35067;48.134;8.378;2024-01-15T01:15:45;-1.60;97.20
49236;DHT22;35067;48.134;8.378;2024-01-15T01:16:46;-1.60;97.00
49236;DHT22;35067;48.134;8.378;2024-01-15T01:17:47;-1.60;97.00
49236;DHT22;35067;48.134;8.378;2024-01-15T01:18:47;-1.60;96.80
49236;DHT22;35067;48.134;8.378;2024-01-15T01:19:49;-1.60;96.70
49236;DHT22;35067;48.134;8.378;2024-01-15T01:20:50;-1.60;96.80
49236;DHT22;35067;48.134;8.378;2024-01-15T01:21:51;-1.50;96.80
49236;DHT22;35067;48.134;8.378;2024-01-15T01:22:52;-1.50;96.70
49236;DHT22;35067;48.134;8.378;2024-01-15T01:23:53;-1.40;96.80
49236;DHT22;35067;48.134;8.378;2024-01-15T01:24:53;-1.40;96.60
49236;DHT22;35067;48.134;8.378;2024-01-15T01:25:54;-1.40;96.30
49236;DHT22;35067;48.134;8.378;2024-01-15T01:26:54;-1.40;96.20
49236;DHT22;35067;48.134;8.378;2024-01-15T01:27:55;-1.40;96.00
49236;DHT22;35067;48.134;8.378;2024-01-15T01:28:56;-1.40;95.90
49236;DHT22;35067;48.134;8.378;2024-01-15T01:29:57;-1.30;95.70
49236;DHT22;35067;48.134;8.378;2024-01-15T01:30:57;-1.30;95.60
49236;DHT22;35067;48.134;8.378;2024-01-15T01:31:58;-1.30;95.70
49236;DHT22;35067;48.134;8.378;2024-01-15T01:32:59;-1.20;95.50
49236;DHT22;35067;48.134;8.378;2024-01-15T01:33:59;-1.20;94.80
49236;DHT22;35067;48.134;8.378;2024-01-15T01:35:00;-1.20;94.90
49236;DHT22;35067;48.134;8.378;2024-01-15T01:36:01;-1.30;95.00
49236;DHT22;35067;48.134;8.378;2024-01-15T01:37:08;-1.30;95.10
49236;DHT22;35067;48.134;8.378;2024-01-15T01:38:09;-1.30;95.20
49236;DHT22;35067;48.134;8.378;2024-01-15T01:39:09;-1.20;95.20
49236;DHT22;35067;48.134;8.378;2024-01-15T01:40:11;-1.20;94.90
49236;DHT22;35067;48.134;8.378;2024-01-15T01:41:11;-1.20;94.70
49236;DHT22;35067;48.134;8.378;2024-01-15T01:42:12;-1.20;94.70
49236;DHT22;35067;48.134;8.378;2024-01-15T01:43:13;-1.20;94.70
49236;DHT22;35067;48.134;8.378;2024-01-15T01:44:13;-1.20;94.70
49236;DHT22;35067;48.134;8.378;2024-01-15T01:45:15;-1.10;94.50
49236;DHT22;35067;48.134;8.378;2024-01-15T01:46:16;-1.00;94.10
49236;DHT22;35067;48.134;8.378;2024-01-15T01:47:17;-1.00;94.10
49236;DHT22;35067;48.134;8.378;2024-01-15T01:48:17;-1.00;94.10
49236;DHT22;35067;48.134;8.378;2024-01-15T01:49:18;-1.00;93.90
49236;DHT22;35067;48.134;8.378;2024-01-15T01:50:19;-0.90;93.50
49236;DHT22;35067;48.134;8.378;2024-01-15T01:51:22;-1.00;93.60
49236;DHT22;35067;48.134;8.378;2024-01-15T01:52:23;-1.10;94.00
49236;DHT22;35067;48.134;8.378;2024-01-15T01:53:26;-1.20;94.30
49236;DHT22;35067;48.134;8.378;2024-01-15T01:54:29;-1.20;94.70
49236;DHT22;35067;48.134;8.378;2024-01-15T01:55:32;-1.20;94.60
49236;DHT22;35067;48.134;8.378;2024-01-15T01:56:35;-1.10;94.40
49236;DHT22;35067;48.134;8.378;2024-01-15T01:57:36;-1.00;94.10
49236;DHT22;35067;48.134;8.378;2024-01-15T01:58:36;-0.90;93.80
49236;DHT22;35067;48.134;8.378;2024-01-15T01:59:37;-0.90;93.50
49236;DHT22;35067;48.134;8.378;2024-01-15T02:00:39;-0.90;93.30
49236;DHT22;35067;48.134;8.378;2024-01-15T02:01:40;-0.90;93.30
49236;DHT22;35067;48.134;8.378;2024-01-15T02:02:42;-0.90;93.60
49236;DHT22;35067;48.134;8.378;2024-01-15T02:03:43;-0.90;93.40
49236;DHT22;35067;48.134;8.378;2024-01-15T02:04:44;-0.90;93.50
49236;DHT22;35067;48.134;8.378;2024-01-15T02:05:46;-0.90;93.40
49236;DHT22;35067;48.134;8.378;2024-01-15T02:06:48;-0.90;93.30
49236;DHT22;35067;48.134;8.378;2024-01-15T02:07:50;-0.80;93.30
49236;DHT22;35067;48.134;8.378;2024-01-15T02:08:51;-0.70;93.10
49236;DHT22;35067;48.134;8.378;2024-01-15T02:09:52;-0.70;92.90
49236;DHT22;35067;48.134;8.378;2024-01-15T02:10:53;-0.70;92.70
49236;DHT22;35067;48.134;8.378;2024-01-15T02:11:53;-0.70;92.50
49236;DHT22;35067;48.134;8.378;2024-01-15T02:12:54;-0.70;92.70
49236;DHT22;35067;48.134;8.378;2024-01-15T02:13:55;-0.70;92.60
49236;DHT22;35067;48.134;8.378;2024-01-15T02:14:55;-0.80;92.60
49236;DHT22;35067;48.134;8.378;2024-01-15T02:15:56;-0.80;92.80
49236;DHT22;35067;48.134;8.378;2024-01-15T02:16:57;-0.80;93.10
49236;DHT22;35067;48.134;8.378;2024-01-15T02:19:03;-0.80;92.90
49236;DHT22;35067;48.134;8.378;2024-01-15T02:20:04;-0.70;92.90
49236;DHT22;35067;48.134;8.378;2024-01-15T02:21:05;-0.70;92.90
49236;DHT22;35067;48.134;8.378;2024-01-15T02:22:06;-0.60;92.50
49236;DHT22;35067;48.134;8.378;2024-01-15T02:23:12;-0.50;92.10
49236;DHT22;35067;48.134;8.378;2024-01-15T02:24:14;-0.50;91.80
49236;DHT22;35067;48.134;8.378;2024-01-15T02:25:15;-0.50;91.80
49236;DHT22;35067;48.134;8.378;2024-01-15T02:26:15;-0.50;91.70
49236;DHT22;35067;48.134;8.378;2024-01-15T02:27:17;-0.50;91.60
49236;DHT22;35067;48.134;8.378;2024-01-15T02:28:17;-0.40;91.50
49236;DHT22;35067;48.134;8.378;2024-01-15T02:29:18;-0.40;91.50
49236;DHT22;35067;48.134;8.378;2024-01-15T02:30:19;-0.40;91.30
49236;DHT22;35067;48.134;8.378;2024-01-15T02:31:20;-0.30;91.10
49236;DHT22;35067;48.134;8.378;2024-01-15T02:32:21;-0.30;91.10
49236;DHT22;35067;48.134;8.378;2024-01-15T02:33:21;-0.30;91.10
49236;DHT22;35067;48.134;8.378;2024-01-15T02:34:22;-0.30;91.10
49236;DHT22;35067;48.134;8.378;2024-01-15T02:35:22;-0.30;91.30
49236;DHT22;35067;48.134;8.378;2024-01-15T02:36:23;-0.30;91.50
49236;DHT22;35067;48.134;8.378;2024-01-15T02:37:24;-0.30;91.70
49236;DHT22;35067;48.134;8.378;2024-01-15T02:38:24;-0.30;91.70
49236;DHT22;35067;48.134;8.378;2024-01-15T02:39:25;-0.30;91.60
49236;DHT22;35067;48.134;8.378;2024-01-15T02:40:26;-0.30;91.40
49236;DHT22;35067;48.134;8.378;2024-01-15T02:41:27;-0.30;91.10
49236;DHT22;35067;48.134;8.378;2024-01-15T02:42:27;-0.20;91.20
49236;DHT22;35067;48.134;8.378;2024-01-15T02:43:28;-0.30;91.20
49236;DHT22;35067;48.134;8.378;2024-01-15T02:44:29;-0.30;91.20
49236;DHT22;35067;48.134;8.378;2024-01-15T02:45:29;-0.30;91.20
49236;DHT22;35067;48.134;8.378;2024-01-15T02:46:30;-0.40;91.80
49236;DHT22;35067;48.134;8.378;2024-01-15T02:47:31;-0.50;92.00
49236;DHT22;35067;48.134;8.378;2024-01-15T02:48:31;-0.50;91.70
49236;DHT22;35067;48.134;8.378;2024-01-15T02:49:33;-0.50;91.80
49236;DHT22;35067;48.134;8.378;2024-01-15T02:50:34;-0.50;91.90
49236;DHT22;35067;48.134;8.378;2024-01-15T02:51:34;-0.50;91.80
49236;DHT22;35067;48.134;8.378;2024-01-15T02:52:35;-0.50;92.10
49236;DHT22;35067;48.134;8.378;2024-01-15T02:53:36;-0.60;92.30
49236;DHT22;35067;48.134;8.378;2024-01-15T02:54:37;-0.60;92.60
49236;DHT22;35067;48.134;8.378;2024-01-15T02:55:38;-0.70;92.70
49236;DHT22;35067;48.134;8.378;2024-01-15T02:56:38;-0.70;92.90
49236;DHT22;35067;48.134;8.378;2024-01-15T02:57:39;-0.70;92.90
49236;DHT22;35067;48.134;8.378;2024-01-15T02:58:40;-0.70;92.90
49236;DHT22;35067;48.134;8.378;2024-01-15T02:59:41;-0.80;93.10
49236;DHT22;35067;48.134;8.378;2024-01-15T03:00:41;-0.80;93.20
49236;DHT22;35067;48.134;8.378;2024-01-15T03:01:42;-0.80;93.30
49236;DHT22;35067;48.134;8.378;2024-01-15T03:02:44;-0.80;93.30
49236;DHT22;35067;48.134;8.378;2024-01-15T03:03:45;-0.70;93.50
49236;DHT22;35067;48.134;8.378;2024-01-15T03:04:45;-0.80;93.30
49236;DHT22;35067;48.134;8.378;2024-01-15T03:05:46;-0.80;93.30
49236;DHT22;35067;48.134;8.378;2024-01-15T03:06:47;-0.80;93.40
49236;DHT22;35067;48.134;8.378;2024-01-15T03:07:48;-0.80;93.30
49236;DHT22;35067;48.134;8.378;2024-01-15T03:08:48;-0.80;92.90
49236;DHT22;35067;48.134;8.378;2024-01-15T03:09:49;-0.70;92.90
49236;DHT22;35067;48.134;8.378;2024-01-15T03:10:50;-0.70;92.70
49236;DHT22;35067;48.134;8.378;2024-01-15T03:11:50;-0.80;93.00
49236;DHT22;35067;48.134;8.378;2024-01-15T03:12:51;-0.80;93.30
49236;DHT22;35067;48.134;8.378;2024-01-15T03:13:52;-0.80;93.20
49236;DHT22;35067;48.134;8.378;2024-01-15T03:14:52;-0.90;93.30
49236;DHT22;35067;48.134;8.378;2024-01-15T03:15:53;-0.90;93.60
49236;DHT22;35067;48.134;8.378;2024-01-15T03:16:54;-0.90;93.60
49236;DHT22;35067;48.134;8.378;2024-01-15T03:17:54;-0.80;93.50
49236;DHT22;35067;48.134;8.378;2024-01-15T03:18:55;-0.70;93.30
49236;DHT22;35067;48.134;8.378;2024-01-15T03:19:56;-0.70;93.60
49236;DHT22;35067;48.134;8.378;2024-01-15T03:20:56;-0.70;92.70
49236;DHT22;35067;48.134;8.378;2024-01-15T03:21:57;-0.70;92.80
49236;DHT22;35067;48.134;8.378;2024-01-15T03:22:58;-0.70;92.70
49236;DHT22;35067;48.134;8.378;2024-01-15T03:23:59;-0.70;93.20
49236;DHT22;35067;48.134;8.378;2024-01-15T03:24:59;-0.70;92.60
49236;DHT22;35067;48.134;8.378;2024-01-15T03:26:00;-0.70;92.70
49236;DHT22;35067;48.134;8.378;2024-01-15T03:27:01;-0.60;92.60
49236;DHT22;35067;48.134;8.378;2024-01-15T03:28:02;-0.60;92.30
49236;DHT22;35067;48.134;8.378;2024-01-15T03:29:03;-0.60;92.40
49236;DHT22;35067;48.134;8.378;2024-01-15T03:30:04;-0.60;92.10
49236;DHT22;35067;48.134;8.378;2024-01-15T03:31:05;-0.60;92.10
49236;DHT22;35067;48.134;8.378;2024-01-15T03:32:07;-0.60;92.40
49236;DHT22;35067;48.134;8.378;2024-01-15T03:33:08;-0.60;92.50
49236;DHT22;35067;48.134;8.378;2024-01-15T03:34:09;-0.70;92.90
49236;DHT22;35067;48.134;8.378;2024-01-15T03:35:09;-0.70;92.80
49236;DHT22;35067;48.134;8.378;2024-01-15T03:36:10;-0.70;92.90
49236;DHT22;35067;48.134;8.378;2024-01-15T03:37:11;-0.80;92.70
49236;DHT22;35067;48.134;8.378;2024-01-15T03:38:13;-0.80;93.10
49236;DHT22;35067;48.134;8.378;2024-01-15T03:39:13;-0.80;93.30
49236;DHT22;35067;48.134;8.378;2024-01-15T03:40:14;-0.80;93.50
49236;DHT22;35067;48.134;8.378;2024-01-15T03:41:15;-0.80;93.50
49236;DHT22;35067;48.134;8.378;2024-01-15T03:42:15;-0.80;93.60
49236;DHT22;35067;48.134;8.378;2024-01-15T03:43:16;-0.90;93.80
49236;DHT22;35067;48.134;8.378;2024-01-15T03:44:17;-0.90;94.10
49236;DHT22;35067;48.134;8.378;2024-01-15T03:45:17;-0.90;94.40
49236;DHT22;35067;48.134;8.378;2024-01-15T03:46:18;-0.90;94.30
49236;DHT22;35067;48.134;8.378;2024-01-15T03:47:19;-1.00;94.50
49236;DHT22;35067;48.134;8.378;2024-01-15T03:48:19;-1.00;94.40
49236;DHT22;35067;48.134;8.378;2024-01-15T03:49:20;-1.00;94.50
49236;DHT22;35067;48.134;8.378;2024-01-15T03:50:21;-0.90;94.40
49236;DHT22;35067;48.134;8.378;2024-01-15T03:51:21;-1.00;94.30
49236;DHT22;35067;48.134;8.378;2024-01-15T03:52:23;-1.00;94.60
49236;DHT22;35067;48.134;8.378;2024-01-15T03:53:23;-1.00;94.50
49236;DHT22;35067;48.134;8.378;2024-01-15T03:54:24;-1.00;94.50
49236;DHT22;35067;48.134;8.378;2024-01-15T03:55:25;-1.00;94.90
49236;DHT22;35067;48.134;8.378;2024-01-15T03:56:26;-1.00;94.70
49236;DHT22;35067;48.134;8.378;2024-01-15T03:57:27;-0.90;94.40
49236;DHT22;35067;48.134;8.378;2024-01-15T03:58:28;-0.90;94.00
49236;DHT22;35067;48.134;8.378;2024-01-15T03:59:28;-0.90;94.10
49236;DHT22;35067;48.134;8.378;2024-01-15T04:00:29;-0.80;93.80
49236;DHT22;35067;48.134;8.378;2024-01-15T04:01:30;-0.90;93.70
49236;DHT22;35067;48.134;8.378;2024-01-15T04:02:30;-0.80;93.80
49236;DHT22;35067;48.134;8.378;2024-01-15T04:03:31;-0.80;93.70
49236;DHT22;35067;48.134;8.378;2024-01-15T04:04:32;-0.80;93.50
49236;DHT22;35067;48.134;8.378;2024-01-15T04:05:32;-0.70;93.20
49236;DHT22;35067;48.134;8.378;2024-01-15T04:06:33;-0.70;92.90
49236;DHT22;35067;48.134;8.378;2024-01-15T04:07:34;-0.70;93.20
49236;DHT22;35067;48.134;8.378;2024-01-15T04:08:34;-0.70;92.90
49236;DHT22;35067;48.134;8.378;2024-01-15T04:09:36;-0.80;93.20
49236;DHT22;35067;48.134;8.378;2024-01-15T04:10:36;-0.80;93.40
49236;DHT22;35067;48.134;8.378;2024-01-15T04:11:37;-0.70;93.50
49236;DHT22;35067;48.134;8.378;2024-01-15T04:12:38;-0.70;93.20
49236;DHT22;35067;48.134;8.378;2024-01-15T04:13:38;-0.80;93.30
49236;DHT22;35067;48.134;8.378;2024-01-15T04:14:39;-0.90;94.20
49236;DHT22;35067;48.134;8.378;2024-01-15T04:15:40;-0.90;93.90
49236;DHT22;35067;48.134;8.378;2024-01-15T04:16:40;-0.80;93.90
49236;DHT22;35067;48.134;8.378;2024-01-15T04:17:41;-0.80;93.90
49236;DHT22;35067;48.134;8.378;2024-01-15T04:18:42;-0.70;93.70
49236;DHT22;35067;48.134;8.378;2024-01-15T04:19:46;-0.80;93.50
49236;DHT22;35067;48.134;8.378;2024-01-15T04:20:48;-0.90;94.00
49236;DHT22;35067;48.134;8.378;2024-01-15T04:21:48;-0.90;94.30
49236;DHT22;35067;48.134;8.378;2024-01-15T04:22:49;-1.00;94.50
49236;DHT22;35067;48.134;8.378;2024-01-15T04:23:50;-0.90;94.60
49236;DHT22;35067;48.134;8.378;2024-01-15T04:24:50;-1.00;94.70
49236;DHT22;35067;48.134;8.378;2024-01-15T04:25:51;-1.00;94.80
49236;DHT22;35067;48.134;8.378;2024-01-15T04:26:52;-1.00;94.70
49236;DHT22;35067;48.134;8.378;2024-01-15T04:27:52;-1.10;95.10
49236;DHT22;35067;48.134;8.378;2024-01-15T04:28:53;-1.20;95.70
49236;DHT22;35067;48.134;8.378;2024-01-15T04:29:54;-1.20;96.10
49236;DHT22;35067;48.134;8.378;2024-01-15T04:30:54;-1.20;96.30
49236;DHT22;35067;48.134;8.378;2024-01-15T04:31:55;-1.30;96.10
49236;DHT22;35067;48.134;8.378;2024-01-15T04:32:56;-1.30;96.40
49236;DHT22;35067;48.134;8.378;2024-01-15T04:33:56;-1.30;96.50
49236;DHT22;35067;48.134;8.378;2024-01-15T04:34:57;-1.30;96.50
49236;DHT22;35067;48.134;8.378;2024-01-15T04:36:02;-1.30;96.60
49236;DHT22;35067;48.134;8.378;2024-01-15T04:37:04;-1.30;96.60
49236;DHT22;35067;48.134;8.378;2024-01-15T04:38:04;-1.20;97.00
49236;DHT22;35067;48.134;8.378;2024-01-15T04:39:05;-1.10;96.60
49236;DHT22;35067;48.134;8.378;2024-01-15T04:40:07;-1.10;96.40
49236;DHT22;35067;48.134;8.378;2024-01-15T04:41:12;-1.00;96.10
49236;DHT22;35067;48.134;8.378;2024-01-15T04:42:13;-1.10;95.90
49236;DHT22;35067;48.134;8.378;2024-01-15T04:43:14;-1.20;96.00
49236;DHT22;35067;48.134;8.378;2024-01-15T04:44:15;-1.20;96.00
49236;DHT22;35067;48.134;8.378;2024-01-15T04:45:16;-1.20;96.10
49236;DHT22;35067;48.134;8.378;2024-01-15T04:46:16;-1.20;96.30
49236;DHT22;35067;48.134;8.378;2024-01-15T04:47:17;-1.30;96.50
49236;DHT22;35067;48.134;8.378;2024-01-15T04:48:18;-1.30;96.70
49236;DHT22;35067;48.134;8.378;2024-01-15T04:49:18;-1.30;96.60
49236;DHT22;35067;48.134;8.378;2024-01-15T04:50:19;-1.30;96.70
49236;DHT22;35067;48.134;8.378;2024-01-15T04:51:20;-1.30;96.70
49236;DHT22;35067;48.134;8.378;2024-01-15T04:52:20;-1.20;96.80
49236;DHT22;35067;48.134;8.378;2024-01-15T04:53:21;-1.20;96.60
49236;DHT22;35067;48.134;8.378;2024-01-15T04:54:22;-1.20;96.40
49236;DHT22;35067;48.134;8.378;2024-01-15T04:55:22;-1.20;96.60
49236;DHT22;35067;48.134;8.378;2024-01-15T04:56:23;-1.20;97.50
49236;DHT22;35067;48.134;8.378;2024-01-15T04:57:23;-1.20;97.10
49236;DHT22;35067;48.134;8.378;2024-01-15T04:58:24;-1.20;97.20
49236;DHT22;35067;48.134;8.378;2024-01-15T04:59:27;-1.20;97.40
49236;DHT22;35067;48.134;8.378;2024-01-15T05:00:27;-1.20;97.90
49236;DHT22;35067;48.134;8.378;2024-01-15T05:01:34;-1.30;98.10
49236;DHT22;35067;48.134;8.378;2024-01-15T05:02:35;-1.50;98.60
49236;DHT22;35067;48.134;8.378;2024-01-15T05:03:36;-1.60;99.30
49236;DHT22;35067;48.134;8.378;2024-01-15T05:04:36;-1.70;99.60
49236;DHT22;35067;48.134;8.378;2024-01-15T05:05:37;-1.80;99.80
49236;DHT22;35067;48.134;8.378;2024-01-15T05:06:38;-1.80;99.90
49236;DHT22;35067;48.134;8.378;2024-01-15T05:07:38;-1.80;99.90
49236;DHT22;35067;48.134;8.378;2024-01-15T05:08:39;-1.80;99.90
49236;DHT22;35067;48.134;8.378;2024-01-15T05:09:40;-1.80;99.50
49236;DHT22;35067;48.134;8.378;2024-01-15T05:10:40;-1.80;99.20
49236;DHT22;35067;48.134;8.378;2024-01-15T05:11:41;-1.90;97.70
49236;DHT22;35067;48.134;8.378;2024-01-15T05:12:42;-1.90;97.90
49236;DHT22;35067;48.134;8.378;2024-01-15T05:13:42;-1.90;98.20
49236;DHT22;35067;48.134;8.378;2024-01-15T05:14:43;-1.90;98.30
49236;DHT22;35067;48.134;8.378;2024-01-15T05:15:44;-1.90;98.20
49236;DHT22;35067;48.134;8.378;2024-01-15T05:16:48;-1.90;98.00
49236;DHT22;35067;48.134;8.378;2024-01-15T05:17:49;-1.90;97.90
49236;DHT22;35067;48.134;8.378;2024-01-15T05:18:50;-1.90;97.90
49236;DHT22;35067;48.134;8.378;2024-01-15T05:19:50;-1.80;97.80
49236;DHT22;35067;48.134;8.378;2024-01-15T05:20:51;-1.80;97.40
49236;DHT22;35067;48.134;8.378;2024-01-15T05:21:52;-1.80;97.60
49236;DHT22;35067;48.134;8.378;2024-01-15T05:22:53;-1.80;97.40
49236;DHT22;35067;48.134;8.378;2024-01-15T05:23:54;-1.80;97.40
49236;DHT22;35067;48.134;8.378;2024-01-15T05:24:54;-1.70;97.10
49236;DHT22;35067;48.134;8.378;2024-01-15T05:25:55;-1.70;96.40
49236;DHT22;35067;48.134;8.378;2024-01-15T05:26:56;-1.60;95.80
49236;DHT22;35067;48.134;8.378;2024-01-15T05:27:56;-1.60;95.90
49236;DHT22;35067;48.134;8.378;2024-01-15T05:28:57;-1.60;95.80
49236;DHT22;35067;48.134;8.378;2024-01-15T05:29:58;-1.60;95.70
49236;DHT22;35067;48.134;8.378;2024-01-15T05:30:58;-1.60;95.30
49236;DHT22;35067;48.134;8.378;2024-01-15T05:32:00;-1.60;95.10
49236;DHT22;35067;48.134;8.378;2024-01-15T05:33:00;-1.70;95.40
49236;DHT22;35067;48.134;8.378;2024-01-15T05:34:01;-1.70;95.60
49236;DHT22;35067;48.134;8.378;2024-01-15T05:35:02;-1.70;95.70
49236;DHT22;35067;48.134;8.378;2024-01-15T05:36:03;-1.70;95.70
49236;DHT22;35067;48.134;8.378;2024-01-15T05:37:04;-1.70;95.80
49236;DHT22;35067;48.134;8.378;2024-01-15T05:38:05;-1.70;95.50
49236;DHT22;35067;48.134;8.378;2024-01-15T05:39:06;-1.70;95.10
49236;DHT22;35067;48.134;8.378;2024-01-15T05:40:07;-1.60;94.10
49236;DHT22;35067;48.134;8.378;2024-01-15T05:41:07;-1.70;94.20
49236;DHT22;35067;48.134;8.378;2024-01-15T05:42:08;-1.70;94.80
49236;DHT22;35067;48.134;8.378;2024-01-15T05:43:09;-1.80;95.00
49236;DHT22;35067;48.134;8.378;2024-01-15T05:44:09;-1.80;94.90
49236;DHT22;35067;48.134;8.378;2024-01-15T05:45:11;-1.80;94.50
49236;DHT22;35067;48.134;8.378;2024-01-15T05:46:11;-1.90;94.40
49236;DHT22;35067;48.134;8.378;2024-01-15T05:47:12;-2.00;94.70
49236;DHT22;35067;48.134;8.378;2024-01-15T05:48:13;-2.00;94.60
49236;DHT22;35067;48.134;8.378;2024-01-15T05:49:13;-2.00;94.40
49236;DHT22;35067;48.134;8.378;2024-01-15T05:50:14;-2.00;94.70
49236;DHT22;35067;48.134;8.378;2024-01-15T05:51:15;-1.90;94.80
49236;DHT22;35067;48.134;8.378;2024-01-15T05:52:16;-1.90;95.20
49236;DHT22;35067;48.134;8.378;2024-01-15T05:53:17;-1.90;94.70
49236;DHT22;35067;48.134;8.378;2024-01-15T05:54:18;-1.80;94.40
49236;DHT22;35067;48.134;8.378;2024-01-15T05:55:20;-1.70;94.30
49236;DHT22;35067;48.134;8.378;2024-01-15T05:56:20;-1.60;94.10
49236;DHT22;35067;48.134;8.378;2024-01-15T05:57:21;-1.60;93.50
49236;DHT22;35067;48.134;8.378;2024-01-15T05:58:22;-1.50;93.00
49236;DHT22;35067;48.134;8.378;2024-01-15T05:59:23;-1.50;92.50
49236;DHT22;35067;48.134;8.378;2024-01-15T06:00:23;-1.60;92.50
49236;DHT22;35067;48.134;8.378;2024-01-15T06:01:24;-1.60;92.90
49236;DHT22;35067;48.134;8.378;2024-01-15T06:02:25;-1.60;92.40
49236;DHT22;35067;48.134;8.378;2024-01-15T06:03:25;-1.70;92.40
49236;DHT22;35067;48.134;8.378;2024-01-15T06:04:26;-1.70;92.50
49236;DHT22;35067;48.134;8.378;2024-01-15T06:05:27;-1.60;92.40
49236;DHT22;35067;48.134;8.378;2024-01-15T06:06:27;-1.60;93.00
49236;DHT22;35067;48.134;8.378;2024-01-15T06:07:28;-1.70;92.20
49236;DHT22;35067;48.134;8.378;2024-01-15T06:08:29;-1.70;92.30
49236;DHT22;35067;48.134;8.378;2024-01-15T06:09:29;-1.70;92.50
49236;DHT22;35067;48.134;8.378;2024-01-15T06:10:31;-1.60;92.50
49236;DHT22;35067;48.134;8.378;2024-01-15T06:11:32;-1.60;91.80
49236;DHT22;35067;48.134;8.378;2024-01-15T06:12:33;-1.70;91.30
49236;DHT22;35067;48.134;8.378;2024-01-15T06:13:34;-1.80;91.90
49236;DHT22;35067;48.134;8.378;2024-01-15T06:14:34;-1.80;92.30
49236;DHT22;35067;48.134;8.378;2024-01-15T06:15:35;-1.80;92.50
49236;DHT22;35067;48.134;8.378;2024-01-15T06:16:36;-1.80;92.70
49236;DHT22;35067;48.134;8.378;2024-01-15T06:17:37;-1.70;92.50
49236;DHT22;35067;48.134;8.378;2024-01-15T06:18:38;-1.70;92.20
49236;DHT22;35067;48.134;8.378;2024-01-15T06:19:38;-1.60;91.70
49236;DHT22;35067;48.134;8.378;2024-01-15T06:20:39;-1.60;91.60
49236;DHT22;35067;48.134;8.378;2024-01-15T06:21:40;-1.60;91.30
49236;DHT22;35067;48.134;8.378;2024-01-15T06:22:40;-1.50;90.70
49236;DHT22;35067;48.134;8.378;2024-01-15T06:23:41;-1.50;90.80
49236;DHT22;35067;48.134;8.378;2024-01-15T06:24:42;-1.60;90.70
49236;DHT22;35067;48.134;8.378;2024-01-15T06:25:43;-1.60;90.70